createdAt,value
2018-03-26T00:01:34.203Z,19.23
2018-03-26T00:04:01.664Z,17.73
2018-03-26T00:06:29.096Z,18.13
2018-03-26T00:08:56.550Z,18.40
2018-03-26T00:11:24.040Z,20.20
2018-03-26T00:13:51.540Z,17.33
2018-03-26T00:16:19.085Z,19.03
2018-03-26T00:18:46.519Z,18.97
2018-03-26T00:21:13.976Z,18.53
2018-03-26T00:23:41.415Z,17.60
2018-03-26T00:26:08.882Z,17.50
2018-03-26T00:28:36.299Z,18.93
2018-03-26T00:31:03.757Z,19.03
2018-03-26T00:33:31.206Z,17.33
2018-03-26T00:35:58.658Z,16.97
2018-03-26T00:38:26.084Z,18.73
2018-03-26T00:40:53.549Z,18.63
2018-03-26T00:43:20.962Z,17.50
2018-03-26T00:45:48.392Z,18.27
2018-03-26T00:48:15.861Z,18.00
2018-03-26T00:50:43.462Z,18.37
2018-03-26T00:53:11.041Z,18.23
2018-03-26T00:55:38.489Z,18.33
2018-03-26T00:58:05.954Z,18.03
2018-03-26T01:00:33.383Z,18.40
2018-03-26T01:03:01.569Z,18.17
2018-03-26T01:05:29.037Z,17.87
2018-03-26T01:07:56.503Z,17.93
2018-03-26T01:10:23.943Z,18.53
2018-03-26T01:12:51.389Z,18.33
2018-03-26T01:15:18.806Z,19.20
2018-03-26T01:17:46.290Z,17.73
2018-03-26T01:20:13.765Z,19.00
2018-03-26T01:22:41.226Z,18.00
2018-03-26T01:25:08.679Z,17.30
2018-03-26T01:27:36.141Z,17.80
2018-03-26T01:30:03.596Z,18.97
2018-03-26T01:32:31.026Z,18.50
2018-03-26T01:34:58.492Z,18.40
2018-03-26T01:37:25.969Z,18.00
2018-03-26T01:39:53.434Z,18.20
2018-03-26T01:42:20.890Z,18.57
2018-03-26T01:44:48.349Z,18.23
2018-03-26T01:47:15.770Z,17.40
2018-03-26T01:49:43.336Z,17.80
2018-03-26T01:52:10.754Z,17.43
2018-03-26T01:54:38.185Z,17.40
2018-03-26T01:57:06.376Z,17.63
2018-03-26T01:59:33.803Z,17.37
2018-03-26T02:02:01.269Z,18.90
2018-03-26T02:04:28.795Z,18.63
2018-03-26T02:06:56.239Z,18.73
2018-03-26T02:09:24.532Z,18.93
2018-03-26T02:11:52.082Z,18.97
2018-03-26T02:14:19.770Z,18.00
2018-03-26T02:16:47.305Z,19.40
2018-03-26T02:19:14.766Z,19.50
2018-03-26T02:21:42.182Z,18.90
2018-03-26T02:24:09.640Z,19.00
2018-03-26T02:26:37.128Z,19.07
2018-03-26T02:29:04.561Z,17.77
2018-03-26T02:31:32.002Z,20.10
2018-03-26T02:33:59.461Z,18.30
2018-03-26T02:36:26.901Z,19.17
2018-03-26T02:38:54.338Z,18.73
2018-03-26T02:41:21.898Z,19.97
2018-03-26T02:43:49.357Z,18.30
2018-03-26T02:46:16.776Z,19.87
2018-03-26T02:48:44.211Z,18.90
2018-03-26T02:51:11.720Z,18.00
2018-03-26T02:53:39.226Z,18.00
2018-03-26T02:56:06.676Z,20.63
2018-03-26T02:58:34.124Z,20.10
2018-03-26T03:01:01.604Z,20.47
2018-03-26T03:03:29.059Z,19.87
2018-03-26T03:05:56.528Z,19.20
2018-03-26T03:08:23.956Z,17.90
2018-03-26T03:10:51.414Z,20.13
2018-03-26T03:13:18.850Z,19.20
2018-03-26T03:15:46.312Z,18.83
2018-03-26T03:18:13.802Z,19.70
2018-03-26T03:20:41.294Z,19.60
2018-03-26T03:23:08.779Z,17.30
2018-03-26T03:25:36.312Z,18.10
2018-03-26T03:28:03.768Z,19.60
2018-03-26T03:30:31.207Z,18.93
2018-03-26T03:32:58.635Z,18.90
2018-03-26T03:35:26.246Z,19.10
2018-03-26T03:37:53.846Z,18.70
2018-03-26T03:40:21.279Z,18.60
2018-03-26T03:42:48.728Z,17.60
2018-03-26T03:45:16.900Z,18.00
2018-03-26T03:47:44.334Z,19.83
2018-03-26T03:50:11.793Z,18.00
2018-03-26T03:52:39.233Z,17.87
2018-03-26T03:55:06.742Z,18.13
2018-03-26T03:57:34.324Z,19.03
2018-03-26T04:00:01.749Z,17.37
2018-03-26T04:02:29.230Z,19.30
2018-03-26T04:04:56.688Z,17.40
2018-03-26T04:07:24.144Z,17.87
2018-03-26T04:09:51.580Z,18.60
2018-03-26T04:12:19.039Z,19.67
2018-03-26T04:14:46.552Z,20.60
2018-03-26T04:17:14.273Z,17.67
2018-03-26T04:19:41.779Z,18.60
2018-03-26T04:22:09.361Z,19.80
2018-03-26T04:24:36.921Z,18.63
2018-03-26T04:27:04.586Z,19.23
2018-03-26T04:29:32.027Z,19.57
2018-03-26T04:31:59.478Z,19.93
2018-03-26T04:34:27.097Z,19.60
2018-03-26T04:36:54.660Z,19.07
2018-03-26T04:39:22.099Z,19.37
2018-03-26T04:41:49.532Z,18.47
2018-03-26T04:44:16.989Z,18.77
2018-03-26T04:46:44.423Z,20.27
2018-03-26T04:49:11.879Z,19.17
2018-03-26T04:51:41.070Z,19.60
2018-03-26T04:54:08.885Z,19.10
2018-03-26T04:56:36.384Z,19.50
2018-03-26T04:59:03.848Z,19.73
2018-03-26T05:01:31.271Z,19.57
2018-03-26T05:03:58.727Z,20.90
2018-03-26T05:06:26.313Z,21.30
2018-03-26T05:08:53.769Z,20.33
2018-03-26T05:11:21.227Z,19.87
2018-03-26T05:13:48.660Z,20.73
2018-03-26T05:16:16.113Z,20.23
2018-03-26T05:18:43.566Z,20.50
2018-03-26T05:21:11.078Z,20.00
2018-03-26T05:23:38.560Z,20.50
2018-03-26T05:26:06.039Z,19.77
2018-03-26T05:28:33.470Z,19.03
2018-03-26T05:31:01.139Z,20.30
2018-03-26T05:33:29.462Z,20.40
2018-03-26T05:35:57.030Z,18.93
2018-03-26T05:38:24.619Z,21.17
2018-03-26T05:40:52.224Z,21.30
2018-03-26T05:43:19.855Z,20.70
2018-03-26T05:45:47.287Z,21.83
2018-03-26T05:48:15.288Z,20.67
2018-03-26T05:50:43.985Z,20.83
2018-03-26T05:53:11.446Z,24.00
2018-03-26T05:55:38.876Z,19.43
2018-03-26T05:58:06.412Z,20.10
2018-03-26T06:00:33.931Z,20.57
2018-03-26T06:03:01.411Z,22.07
2018-03-26T06:05:28.856Z,21.00
2018-03-26T06:07:56.298Z,20.70
2018-03-26T06:10:23.899Z,20.70
2018-03-26T06:12:51.340Z,20.43
2018-03-26T06:15:18.857Z,19.40
2018-03-26T06:17:46.308Z,21.13
2018-03-26T06:20:13.912Z,20.47
2018-03-26T06:22:41.340Z,20.50
2018-03-26T06:25:08.793Z,22.40
2018-03-26T06:27:36.227Z,21.20
2018-03-26T06:30:03.781Z,20.47
2018-03-26T06:32:31.231Z,20.80
2018-03-26T06:34:58.647Z,21.13
2018-03-26T06:37:31.624Z,21.27
2018-03-26T06:39:59.076Z,25.70
2018-03-26T06:42:26.537Z,23.23
2018-03-26T06:44:54.011Z,20.90
2018-03-26T06:47:21.449Z,22.03
2018-03-26T06:49:48.882Z,21.63
2018-03-26T06:52:16.340Z,22.47
2018-03-26T06:54:43.807Z,21.50
2018-03-26T06:57:11.606Z,21.40
2018-03-26T06:59:39.367Z,21.60
2018-03-26T07:02:06.883Z,22.20
2018-03-26T07:04:34.314Z,22.27
2018-03-26T07:07:01.767Z,22.70
2018-03-26T07:09:29.225Z,21.63
2018-03-26T07:11:56.699Z,21.40
2018-03-26T07:14:24.308Z,21.10
2018-03-26T07:16:51.746Z,21.93
2018-03-26T07:19:19.199Z,22.33
2018-03-26T07:21:46.617Z,22.33
2018-03-26T07:24:14.067Z,21.60
2018-03-26T07:26:41.511Z,23.13
2018-03-26T07:29:08.967Z,22.97
2018-03-26T07:31:36.471Z,22.77
2018-03-26T07:34:03.927Z,24.93
2018-03-26T07:36:31.560Z,23.00
2018-03-26T07:38:59.045Z,22.37
2018-03-26T07:41:26.500Z,23.40
2018-03-26T07:43:53.979Z,22.13
2018-03-26T07:46:21.464Z,23.07
2018-03-26T07:48:48.973Z,22.87
2018-03-26T07:51:16.823Z,22.30
2018-03-26T07:53:44.257Z,22.23
2018-03-26T07:56:11.766Z,23.60
2018-03-26T07:58:39.210Z,21.80
2018-03-26T08:01:06.712Z,22.93
2018-03-26T08:03:34.234Z,22.93
2018-03-26T08:06:01.656Z,22.17
2018-03-26T08:08:29.763Z,22.03
2018-03-26T08:10:57.250Z,23.13
2018-03-26T08:13:24.806Z,23.13
2018-03-26T08:15:52.562Z,23.30
2018-03-26T08:18:20.060Z,22.77
2018-03-26T08:20:47.521Z,24.00
2018-03-26T08:23:14.979Z,23.93
2018-03-26T08:25:42.442Z,25.03
2018-03-26T08:28:09.905Z,23.37
2018-03-26T08:30:37.369Z,23.13
2018-03-26T08:33:04.843Z,25.33
2018-03-26T08:35:32.275Z,25.40
2018-03-26T08:37:59.776Z,25.30
2018-03-26T08:40:27.239Z,26.97
2018-03-26T08:42:54.676Z,26.13
2018-03-26T08:45:22.225Z,29.63
2018-03-26T08:47:49.651Z,28.60
2018-03-26T08:50:17.277Z,28.57
2018-03-26T08:52:44.668Z,30.60
2018-03-26T08:55:12.130Z,27.80
2018-03-26T08:57:39.589Z,27.87
2018-03-26T09:00:07.263Z,26.57
2018-03-26T09:02:34.785Z,28.37
2018-03-26T09:05:02.233Z,30.73
2018-03-26T09:07:29.757Z,28.77
2018-03-26T09:09:57.262Z,28.60
2018-03-26T09:12:25.395Z,28.90
2018-03-26T09:14:52.908Z,29.70
2018-03-26T09:17:20.374Z,29.47
2018-03-26T09:19:48.185Z,29.80
2018-03-26T09:22:15.664Z,28.37
2018-03-26T09:24:43.112Z,28.17
2018-03-26T09:27:10.584Z,29.37
2018-03-26T09:29:38.081Z,29.30
2018-03-26T09:32:05.837Z,29.63
2018-03-26T09:34:33.369Z,29.80
2018-03-26T09:37:00.810Z,29.50
2018-03-26T09:39:28.282Z,31.37
2018-03-26T09:41:55.810Z,30.20
2018-03-26T09:44:23.382Z,31.53
2018-03-26T09:46:50.844Z,30.80
2018-03-26T09:49:18.303Z,31.00
2018-03-26T09:51:45.805Z,30.83
2018-03-26T09:54:13.267Z,31.10
2018-03-26T09:56:40.707Z,30.73
2018-03-26T09:59:08.295Z,31.07
2018-03-26T10:01:41.621Z,31.80
2018-03-26T10:04:09.091Z,31.87
2018-03-26T10:06:36.664Z,31.93
2018-03-26T10:09:04.894Z,31.03
2018-03-26T10:11:33.063Z,30.97
2018-03-26T10:14:00.592Z,30.27
2018-03-26T10:16:28.129Z,30.47
2018-03-26T10:18:55.568Z,29.70
2018-03-26T10:21:23.161Z,32.07
2018-03-26T10:23:50.698Z,31.97
2018-03-26T10:26:18.270Z,32.10
2018-03-26T10:28:45.710Z,31.97
2018-03-26T10:31:13.237Z,32.40
2018-03-26T10:33:40.598Z,31.53
2018-03-26T10:36:08.067Z,30.40
2018-03-26T10:38:35.516Z,31.93
2018-03-26T10:41:02.945Z,32.77
2018-03-26T10:43:30.424Z,30.47
2018-03-26T10:45:57.956Z,30.50
2018-03-26T10:48:25.390Z,31.20
2018-03-26T10:50:52.890Z,29.83
2018-03-26T10:53:20.428Z,30.73
2018-03-26T10:55:47.853Z,30.50
2018-03-26T10:58:15.329Z,29.57
2018-03-26T11:00:42.855Z,30.43
2018-03-26T11:03:10.316Z,29.50
2018-03-26T11:05:37.778Z,29.47
2018-03-26T11:08:05.242Z,29.20
2018-03-26T11:10:32.715Z,29.23
2018-03-26T11:13:00.134Z,30.33
2018-03-26T11:15:27.695Z,29.63
2018-03-26T11:17:55.179Z,29.87
2018-03-26T11:20:22.649Z,30.60
2018-03-26T11:22:50.113Z,28.67
2018-03-26T11:25:17.666Z,30.50
2018-03-26T11:27:45.135Z,30.73
2018-03-26T11:30:13.058Z,28.53
2018-03-26T11:32:40.573Z,31.60
2018-03-26T11:35:08.290Z,28.40
2018-03-26T11:37:35.792Z,29.60
2018-03-26T11:40:03.382Z,29.50
2018-03-26T11:42:30.924Z,31.40
2018-03-26T11:44:58.429Z,29.97
2018-03-26T11:47:26.085Z,28.40
2018-03-26T11:49:53.527Z,29.90
2018-03-26T11:52:21.589Z,30.17
2018-03-26T11:54:49.330Z,30.23
2018-03-26T11:57:16.814Z,30.13
2018-03-26T11:59:44.288Z,28.60
2018-03-26T12:02:11.889Z,27.17
2018-03-26T12:04:39.405Z,31.10
2018-03-26T12:07:06.884Z,28.43
2018-03-26T12:09:34.365Z,28.37
2018-03-26T12:12:01.910Z,27.73
2018-03-26T12:14:29.447Z,27.87
2018-03-26T12:16:56.897Z,27.50
2018-03-26T12:19:25.336Z,28.17
2018-03-26T12:21:52.809Z,25.40
2018-03-26T12:24:32.175Z,29.30
2018-03-26T12:26:59.628Z,26.23
2018-03-26T12:29:39.190Z,26.10
2018-03-26T12:32:06.994Z,23.40
2018-03-26T12:34:46.346Z,26.50
2018-03-26T12:37:13.803Z,25.30
2018-03-26T12:39:41.279Z,26.50
2018-03-26T12:42:08.767Z,27.27
2018-03-26T12:44:48.207Z,28.40
2018-03-26T12:47:15.648Z,28.00
2018-03-26T12:49:43.124Z,27.80
2018-03-26T12:52:22.378Z,26.10
2018-03-26T12:54:49.894Z,25.50
2018-03-26T13:00:17.729Z,22.13
2018-03-26T13:02:45.474Z,24.37
2018-03-26T13:05:12.961Z,22.37
2018-03-26T13:07:40.521Z,25.03
2018-03-26T13:10:07.999Z,24.57
2018-03-26T13:12:36.051Z,23.60
2018-03-26T13:15:03.670Z,23.93
2018-03-26T13:17:31.273Z,23.57
2018-03-26T13:19:58.889Z,24.07
2018-03-26T13:22:26.440Z,24.60
2018-03-26T13:24:54.481Z,26.07
2018-03-26T13:27:21.975Z,24.97
2018-03-26T13:29:49.451Z,23.93
2018-03-26T13:32:16.946Z,25.03
2018-03-26T13:34:44.414Z,26.30
2018-03-26T13:37:11.891Z,28.17
2018-03-26T13:39:39.348Z,26.90
2018-03-26T13:42:07.284Z,25.53
2018-03-26T13:44:34.753Z,26.50
2018-03-26T13:47:02.259Z,26.33
2018-03-26T13:49:29.857Z,25.20
2018-03-26T13:51:57.332Z,24.20
2018-03-26T13:54:24.819Z,22.80
2018-03-26T13:56:52.753Z,24.50
2018-03-26T13:59:20.302Z,23.83
2018-03-26T14:01:47.732Z,25.10
2018-03-26T14:04:15.532Z,25.20
2018-03-26T14:06:42.959Z,24.63
2018-03-26T14:09:22.064Z,27.40
2018-03-26T14:12:01.352Z,24.43
2018-03-26T14:14:40.717Z,23.47
2018-03-26T14:17:19.699Z,25.13
2018-03-26T14:19:47.176Z,25.40
2018-03-26T14:22:14.641Z,28.50
2018-03-26T14:24:42.112Z,27.50
2018-03-26T14:27:09.548Z,27.17
2018-03-26T14:29:37.038Z,28.40
2018-03-26T14:32:04.472Z,26.37
2018-03-26T14:34:32.037Z,26.30
2018-03-26T14:37:00.094Z,28.40
2018-03-26T14:39:27.554Z,28.63
2018-03-26T14:41:55.083Z,29.63
2018-03-26T14:44:22.657Z,28.70
2018-03-26T14:46:50.393Z,28.60
2018-03-26T14:49:17.910Z,31.50
2018-03-26T14:51:45.531Z,30.90
2018-03-26T14:54:12.986Z,29.40
2018-03-26T14:56:40.434Z,29.43
2018-03-26T14:59:07.926Z,28.60
2018-03-26T15:01:35.372Z,27.90
2018-03-26T15:04:02.834Z,27.63
2018-03-26T15:06:30.265Z,29.50
2018-03-26T15:08:57.780Z,30.13
2018-03-26T15:11:25.221Z,29.93
2018-03-26T15:13:52.683Z,30.07
